Time;durP1;ratioP1;P1;durP2;ratioP2;P2;SDS_P1;SDS_P2;PMS_P1;PMS_P2;Temp;Humidity;BMP_temperature;BMP_pressure;BME280_temperature;BME280_humidity;BME280_pressure;Samples;Min_cycle;Max_cycle;Signal;HPM_P1;HPM_P2
2022/09/01 00:01:33;;;;;;;20.33;18.43;;;;;;;15.93;100.00;98314.44;5073926;28;20211;-71
2022/09/01 00:04:03;;;;;;;20.40;18.37;;;;;;;15.97;100.00;98315.59;5073756;28;20298;-71
2022/09/01 00:06:31;;;;;;;20.27;18.43;;;;;;;15.87;100.00;98314.66;5073402;28;20286;-71
2022/09/01 00:09:00;;;;;;;20.13;18.33;;;;;;;15.84;100.00;98318.59;5073742;28;20214;-71
2022/09/01 00:11:29;;;;;;;20.80;18.63;;;;;;;15.76;100.00;98318.22;5073800;28;20570;-70
2022/09/01 00:13:56;;;;;;;20.63;18.60;;;;;;;15.79;100.00;98305.13;5073777;28;20206;-71
2022/09/01 00:16:23;;;;;;;20.43;18.47;;;;;;;15.78;100.00;98310.75;5073720;28;20204;-70
2022/09/01 00:18:52;;;;;;;20.80;18.73;;;;;;;15.71;100.00;98312.78;5073324;28;20663;-71
2022/09/01 00:21:28;;;;;;;21.43;19.33;;;;;;;15.72;100.00;98312.53;5073276;28;20295;-71
2022/09/01 00:23:54;;;;;;;21.17;19.23;;;;;;;15.76;100.00;98324.41;5073368;28;20184;-71
2022/09/01 00:26:21;;;;;;;20.40;18.57;;;;;;;15.78;100.00;98316.91;5073245;28;20234;-71
2022/09/01 00:28:47;;;;;;;20.63;18.43;;;;;;;15.76;100.00;98316.38;5073543;28;20205;-71
2022/09/01 00:31:15;;;;;;;22.07;19.77;;;;;;;15.77;100.00;98319.84;5073415;28;20208;-71
2022/09/01 00:33:42;;;;;;;21.07;18.87;;;;;;;15.74;100.00;98313.09;5073496;28;20238;-71
2022/09/01 00:36:09;;;;;;;21.13;18.93;;;;;;;15.73;100.00;98316.03;5073145;28;20667;-71
2022/09/01 00:38:35;;;;;;;20.70;18.63;;;;;;;15.72;100.00;98314.41;5073170;28;20547;-70
2022/09/01 00:41:02;;;;;;;21.43;18.83;;;;;;;15.73;100.00;98305.31;5073146;28;20232;-70
2022/09/01 00:43:43;;;;;;;22.00;20.03;;;;;;;15.70;100.00;98316.53;5073047;28;20204;-71
2022/09/01 00:46:13;;;;;;;20.20;18.23;;;;;;;15.63;100.00;98305.97;5074175;28;20213;-71
2022/09/01 00:48:39;;;;;;;19.87;18.10;;;;;;;15.62;100.00;98307.03;5073028;28;20204;-70
2022/09/01 00:51:07;;;;;;;20.33;18.17;;;;;;;15.59;100.00;98302.16;5073332;28;20659;-71
2022/09/01 00:53:35;;;;;;;18.90;17.13;;;;;;;15.55;100.00;98303.69;5055629;28;20291;-71
2022/09/01 00:56:04;;;;;;;20.90;18.80;;;;;;;15.55;100.00;98302.88;5073303;28;20296;-71
2022/09/01 00:58:32;;;;;;;19.77;17.87;;;;;;;15.50;100.00;98310.84;5073283;28;20204;-70
2022/09/01 01:00:58;;;;;;;19.80;17.90;;;;;;;15.46;100.00;98301.66;5073220;28;20220;-70
2022/09/01 01:03:25;;;;;;;20.57;18.60;;;;;;;15.45;100.00;98297.34;5072954;28;20200;-70
2022/09/01 01:05:56;;;;;;;19.80;17.90;;;;;;;15.48;100.00;98297.72;5073168;28;20221;-71
2022/09/01 01:08:32;;;;;;;19.57;17.67;;;;;;;15.43;100.00;98297.59;5072953;28;20185;-71
2022/09/01 01:11:00;;;;;;;19.13;17.23;;;;;;;15.36;100.00;98299.66;5075304;28;20281;-71
2022/09/01 01:13:31;;;;;;;18.00;16.40;;;;;;;15.42;100.00;98304.03;5076844;28;20201;-71
2022/09/01 01:15:58;;;;;;;18.80;17.00;;;;;;;15.42;100.00;98303.22;5077112;28;20185;-70
2022/09/01 01:18:25;;;;;;;18.20;16.50;;;;;;;15.33;100.00;98302.75;5076687;28;20204;-70
2022/09/01 01:24:28;;;;;;;18.07;16.27;;;;;;;15.31;100.00;98301.38;5077002;28;20245;-71
2022/09/01 01:26:57;;;;;;;18.20;16.40;;;;;;;15.29;100.00;98298.94;5076804;28;20204;-71
2022/09/01 01:29:24;;;;;;;18.83;16.83;;;;;;;15.24;100.00;98306.91;5076700;28;20225;-71
2022/09/01 01:31:52;;;;;;;18.27;16.53;;;;;;;15.18;100.00;98301.69;5076362;28;20201;-71
2022/09/01 01:34:21;;;;;;;18.40;16.70;;;;;;;15.14;100.00;98306.72;5076684;28;20252;-70
2022/09/01 01:36:49;;;;;;;17.97;16.27;;;;;;;15.24;100.00;98306.91;5076321;28;20234;-71
2022/09/01 01:39:20;;;;;;;17.63;15.83;;;;;;;15.23;100.00;98310.63;5076439;28;20225;-71
2022/09/01 01:41:47;;;;;;;18.47;16.60;;;;;;;15.20;100.00;98308.44;5076609;28;20238;-71
2022/09/01 01:44:17;;;;;;;16.80;15.20;;;;;;;15.21;100.00;98311.94;5076536;28;20201;-70
2022/09/01 01:46:50;;;;;;;19.40;16.30;;;;;;;15.20;100.00;98307.63;5076103;28;20677;-71
2022/09/01 01:49:19;;;;;;;18.13;16.40;;;;;;;15.18;100.00;98302.53;5076402;28;20235;-71
2022/09/01 01:51:47;;;;;;;19.03;15.23;;;;;;;15.12;100.00;98302.69;5076122;28;20684;-70
2022/09/01 01:54:14;;;;;;;15.53;14.23;;;;;;;15.08;100.00;98302.34;5076320;28;20204;-71
2022/09/01 01:56:41;;;;;;;15.90;14.33;;;;;;;15.05;100.00;98302.00;5076242;28;20232;-71
2022/09/01 01:59:14;;;;;;;15.90;14.47;;;;;;;14.96;100.00;98308.78;5076197;28;20312;-71
2022/09/01 02:01:42;;;;;;;16.27;14.30;;;;;;;14.95;100.00;98305.31;5076002;28;20193;-71
2022/09/01 02:04:10;;;;;;;16.10;14.43;;;;;;;14.92;100.00;98313.81;5076202;28;20208;-71
2022/09/01 02:06:40;;;;;;;16.13;14.57;;;;;;;14.94;100.00;98309.06;5075775;28;20217;-71
2022/09/01 02:09:07;;;;;;;17.57;15.70;;;;;;;14.98;100.00;98306.72;5075842;28;20699;-71
2022/09/01 02:11:36;;;;;;;15.53;14.03;;;;;;;14.96;100.00;98306.94;5075749;28;20648;-70
2022/09/01 02:14:05;;;;;;;17.63;15.83;;;;;;;14.90;100.00;98305.25;5075702;28;20689;-71
2022/09/01 02:16:32;;;;;;;16.53;14.93;;;;;;;14.99;100.00;98311.81;5075931;28;20204;-70
2022/09/01 02:18:59;;;;;;;15.27;13.67;;;;;;;15.00;100.00;98313.44;5075416;28;20212;-71
2022/09/01 02:21:27;;;;;;;16.60;15.07;;;;;;;14.88;100.00;98309.22;5075259;28;20298;-70
2022/09/01 02:23:59;;;;;;;16.17;14.67;;;;;;;14.89;100.00;98319.69;5075552;28;20570;-71
2022/09/01 02:26:36;;;;;;;15.63;14.13;;;;;;;14.93;100.00;98312.78;5075411;28;20657;-71
2022/09/01 02:29:05;;;;;;;15.57;14.17;;;;;;;14.84;100.00;98313.41;5075400;28;20646;-71
2022/09/01 02:31:38;;;;;;;15.00;13.53;;;;;;;14.92;100.00;98313.03;5074975;28;20205;-71
2022/09/01 02:34:09;;;;;;;15.53;13.93;;;;;;;14.92;100.00;98315.72;5075380;28;20658;-71
2022/09/01 02:36:39;;;;;;;14.67;13.27;;;;;;;14.83;100.00;98317.94;5075644;28;20196;-70
2022/09/01 02:39:06;;;;;;;13.70;12.50;;;;;;;14.80;100.00;98312.25;5075482;28;20252;-71
2022/09/01 02:41:33;;;;;;;14.53;13.23;;;;;;;14.79;100.00;98308.75;5074772;28;20204;-71
2022/09/01 02:44:01;;;;;;;14.07;12.83;;;;;;;14.81;100.00;98313.88;5075473;28;20200;-71
2022/09/01 02:46:28;;;;;;;14.27;12.97;;;;;;;14.84;100.00;98314.19;5075324;28;20227;-71
2022/09/01 02:48:55;;;;;;;14.33;13.13;;;;;;;14.82;100.00;98313.66;5074981;28;20209;-71
2022/09/01 02:51:25;;;;;;;14.20;13.00;;;;;;;14.84;100.00;98314.19;5074944;28;20303;-70
2022/09/01 02:53:52;;;;;;;13.93;12.67;;;;;;;14.82;100.00;98312.81;5074900;28;20205;-71
2022/09/01 02:56:23;;;;;;;14.57;13.23;;;;;;;14.77;100.00;98305.53;5075187;28;20204;-70
2022/09/01 02:58:50;;;;;;;13.97;12.77;;;;;;;14.78;100.00;98304.47;5074966;28;20199;-71
2022/09/01 03:01:23;;;;;;;14.63;13.20;;;;;;;14.73;100.00;98309.72;5075015;28;20227;-71
2022/09/01 03:03:52;;;;;;;14.60;13.30;;;;;;;14.73;100.00;98309.72;5074714;28;20723;-70
2022/09/01 03:06:22;;;;;;;16.37;14.70;;;;;;;14.79;100.00;98308.75;5074907;28;20231;-70
2022/09/01 03:08:51;;;;;;;14.93;13.53;;;;;;;14.82;100.00;98294.91;5075288;28;20548;-71
2022/09/01 03:11:18;;;;;;;15.90;14.30;;;;;;;14.75;100.00;98301.47;5074529;28;20201;-70
2022/09/01 03:13:45;;;;;;;16.30;14.80;;;;;;;14.77;100.00;98288.63;5074490;28;20686;-71
2022/09/01 03:16:12;;;;;;;15.37;14.07;;;;;;;14.72;100.00;98292.06;5074710;28;20210;-70
2022/09/01 03:18:39;;;;;;;16.23;14.83;;;;;;;14.68;100.00;98295.44;5074381;28;20299;-70
2022/09/01 03:21:07;;;;;;;17.17;15.50;;;;;;;14.75;100.00;98302.25;5074166;28;20297;-71
2022/09/01 03:23:33;;;;;;;16.73;15.27;;;;;;;14.73;100.00;98298.19;5074607;28;20212;-70
2022/09/01 03:26:01;;;;;;;15.87;14.27;;;;;;;14.65;100.00;98302.06;5074531;28;20251;-71
2022/09/01 03:28:27;;;;;;;16.23;14.73;;;;;;;14.54;100.00;98299.44;5074239;28;20208;-70
2022/09/01 03:30:55;;;;;;;15.47;13.87;;;;;;;14.57;100.00;98294.41;5074291;28;20312;-70
2022/09/01 03:33:24;;;;;;;16.50;15.00;;;;;;;14.60;100.00;98301.19;5074071;28;20299;-70
2022/09/01 03:35:51;;;;;;;16.10;14.50;;;;;;;14.65;100.00;98295.94;5074026;28;20208;-71
2022/09/01 03:38:21;;;;;;;16.47;14.83;;;;;;;14.70;100.00;98307.50;5073700;28;20303;-70
2022/09/01 03:40:49;;;;;;;17.13;15.63;;;;;;;14.61;100.00;98308.16;5074198;28;20220;-70
2022/09/01 03:43:18;;;;;;;16.63;14.93;;;;;;;14.51;100.00;98310.63;5073767;28;20205;-70
2022/09/01 03:45:45;;;;;;;16.70;15.00;;;;;;;14.62;100.00;98310.59;5073518;28;20266;-71
2022/09/01 03:48:15;;;;;;;15.80;14.30;;;;;;;14.57;100.00;98315.81;5074002;28;20236;-71
2022/09/01 03:50:46;;;;;;;17.57;15.80;;;;;;;14.53;100.00;98309.34;5073680;28;20235;-71
2022/09/01 03:53:16;;;;;;;16.47;14.97;;;;;;;14.49;100.00;98305.53;5074137;28;20197;-70
2022/09/01 03:55:45;;;;;;;16.77;15.13;;;;;;;14.61;100.00;98310.84;5073944;28;20291;-70
2022/09/01 03:58:13;;;;;;;17.37;15.83;;;;;;;14.51;100.00;98311.44;5073952;28;20200;-70
2022/09/01 04:00:43;;;;;;;17.33;15.67;;;;;;;14.54;100.00;98310.97;5073493;28;20278;-71
2022/09/01 04:03:11;;;;;;;17.03;15.33;;;;;;;14.55;100.00;98309.09;5073323;28;20220;-71
2022/09/01 04:05:42;;;;;;;17.33;15.83;;;;;;;14.48;100.00;98306.53;5073674;28;20647;-71
2022/09/01 04:08:11;;;;;;;17.40;15.83;;;;;;;14.48;100.00;98306.53;5073348;28;20280;-70
2022/09/01 04:10:50;;;;;;;16.73;14.93;;;;;;;14.41;100.00;98308.56;5073785;28;20718;-71
2022/09/01 04:13:22;;;;;;;18.83;16.27;;;;;;;14.41;100.00;98299.72;5073652;28;20192;-71
2022/09/01 04:15:49;;;;;;;17.37;15.67;;;;;;;14.41;100.00;98302.38;5073575;28;20191;-71
2022/09/01 04:18:19;;;;;;;17.37;15.63;;;;;;;14.44;100.00;98312.63;5073478;28;20208;-70
2022/09/01 04:20:50;;;;;;;18.53;16.83;;;;;;;14.36;100.00;98312.97;5072983;28;20263;-70
2022/09/01 04:23:25;;;;;;;18.10;16.30;;;;;;;14.36;100.00;98308.47;5073374;28;20197;-70
2022/09/01 04:25:55;;;;;;;16.33;14.93;;;;;;;14.40;100.00;98311.47;5073439;28;20248;-70
2022/09/01 04:28:25;;;;;;;17.70;16.10;;;;;;;14.42;100.00;98304.03;5073837;28;20211;-70
2022/09/01 04:30:55;;;;;;;17.93;16.17;;;;;;;14.42;100.00;98312.84;5073374;28;20320;-70
2022/09/01 04:33:24;;;;;;;17.77;16.17;;;;;;;14.41;100.00;98311.22;5073914;28;20208;-71
2022/09/01 04:35:55;;;;;;;18.33;16.50;;;;;;;14.43;100.00;98308.31;5073375;28;20228;-70
2022/09/01 04:38:23;;;;;;;18.77;17.17;;;;;;;14.45;100.00;98315.06;5073143;28;20216;-71
2022/09/01 04:40:52;;;;;;;17.73;16.03;;;;;;;14.45;100.00;98317.75;5073035;28;20586;-70
2022/09/01 04:43:18;;;;;;;18.00;16.20;;;;;;;14.46;100.00;98316.69;5073038;28;20259;-71
2022/09/01 04:45:48;;;;;;;18.40;16.70;;;;;;;14.45;100.00;98314.25;5076939;28;20315;-71
2022/09/01 04:48:14;;;;;;;18.60;16.73;;;;;;;14.46;100.00;98324.72;5080240;28;20268;-71
2022/09/01 04:50:41;;;;;;;18.77;17.07;;;;;;;14.49;100.00;98318.06;5079650;28;20251;-71
2022/09/01 04:53:10;;;;;;;18.47;16.77;;;;;;;14.39;100.00;98320.53;5079616;28;20204;-71
2022/09/01 04:55:42;;;;;;;18.13;16.33;;;;;;;14.31;100.00;98318.22;5079335;28;20713;-70
2022/09/01 04:58:12;;;;;;;19.27;17.37;;;;;;;14.36;100.00;98307.63;5079451;28;20636;-71
2022/09/01 05:00:40;;;;;;;19.50;17.73;;;;;;;14.43;100.00;98308.31;5079283;28;20230;-70
2022/09/01 05:03:08;;;;;;;19.23;17.43;;;;;;;14.50;100.00;98315.16;5078993;28;20230;-71
2022/09/01 05:05:45;;;;;;;18.70;16.87;;;;;;;14.58;100.00;98309.44;5079119;28;20228;-70
2022/09/01 05:08:19;;;;;;;19.10;17.50;;;;;;;14.61;100.00;98308.16;5079562;28;20299;-71
2022/09/01 05:10:49;;;;;;;19.10;17.03;;;;;;;14.52;100.00;98312.25;5079809;28;20327;-71
2022/09/01 05:13:17;;;;;;;18.77;16.97;;;;;;;14.48;100.00;98311.09;5079558;28;20212;-71
2022/09/01 05:15:46;;;;;;;19.63;17.53;;;;;;;14.63;100.00;98316.75;5079307;28;20686;-70
2022/09/01 05:18:22;;;;;;;19.20;17.30;;;;;;;14.64;100.00;98313.84;5079153;28;20667;-70
2022/09/01 05:20:49;;;;;;;18.27;16.40;;;;;;;14.72;100.00;98308.09;5078639;28;20236;-71
2022/09/01 05:23:18;;;;;;;20.47;17.90;;;;;;;14.73;100.00;98315.06;5078694;28;20663;-69
2022/09/01 05:25:48;;;;;;;19.87;17.80;;;;;;;14.79;100.00;98319.47;5079483;28;20282;-70
2022/09/01 05:28:17;;;;;;;20.77;17.63;;;;;;;14.70;100.00;98315.53;5079173;28;20551;-70
2022/09/01 05:30:46;;;;;;;19.47;17.60;;;;;;;14.76;100.00;98319.97;5079077;28;20224;-69
2022/09/01 05:33:15;;;;;;;19.43;17.73;;;;;;;14.87;100.00;98329.78;5079260;28;20208;-69
2022/09/01 05:35:51;;;;;;;19.27;17.57;;;;;;;14.92;100.00;98319.19;5079190;28;20295;-69
2022/09/01 05:38:18;;;;;;;18.17;16.47;;;;;;;15.09;100.00;98320.03;5079008;28;20192;-70
2022/09/01 05:40:45;;;;;;;19.10;17.20;;;;;;;15.00;100.00;98318.81;5079198;28;20319;-69
2022/09/01 05:43:13;;;;;;;18.60;16.90;;;;;;;14.96;100.00;98314.97;5079095;28;20205;-69
2022/09/01 05:45:42;;;;;;;19.37;17.53;;;;;;;14.97;100.00;98319.28;5079259;28;20205;-69
2022/09/01 05:48:19;;;;;;;18.33;16.67;;;;;;;14.94;100.00;98322.44;5079031;28;20227;-70
2022/09/01 05:50:45;;;;;;;17.93;16.23;;;;;;;14.96;100.00;98309.63;5078867;28;20311;-70
2022/09/01 05:53:16;;;;;;;19.77;17.97;;;;;;;14.99;100.00;98311.00;5079199;28;20291;-69
2022/09/01 05:55:47;;;;;;;20.30;18.40;;;;;;;15.02;100.00;98318.56;5078546;28;20188;-70
2022/09/01 05:58:16;;;;;;;20.30;18.40;;;;;;;15.11;100.00;98314.44;5075944;28;20288;-70
2022/09/01 06:00:46;;;;;;;20.53;18.53;;;;;;;15.13;100.00;98315.81;5075380;28;20228;-69
2022/09/01 06:03:14;;;;;;;20.40;18.43;;;;;;;15.21;100.00;98311.94;5076000;28;20275;-70
2022/09/01 06:05:41;;;;;;;22.60;19.30;;;;;;;15.23;100.00;98320.53;5075622;28;20250;-70
2022/09/01 06:08:09;;;;;;;21.50;19.40;;;;;;;15.22;100.00;98310.88;5075378;28;20295;-69
2022/09/01 06:10:40;;;;;;;19.47;17.63;;;;;;;15.27;100.00;98316.31;5075203;28;20229;-70
2022/09/01 06:13:08;;;;;;;20.80;18.90;;;;;;;15.34;100.00;98315.13;5075084;28;20207;-72
2022/09/01 06:15:38;;;;;;;19.90;18.03;;;;;;;15.39;100.00;98309.88;5075189;28;20255;-72
2022/09/01 06:18:06;;;;;;;20.63;18.77;;;;;;;15.46;100.00;98315.88;5075092;28;20201;-71
2022/09/01 06:20:33;;;;;;;19.40;17.57;;;;;;;15.54;100.00;98306.63;5075175;28;20239;-71
2022/09/01 06:23:01;;;;;;;20.50;18.60;;;;;;;15.51;100.00;98315.94;5075408;28;20235;-71
2022/09/01 06:25:29;;;;;;;19.97;17.97;;;;;;;15.51;100.00;98309.81;5075416;28;20239;-71
2022/09/01 06:27:56;;;;;;;18.13;16.43;;;;;;;15.47;100.00;98320.19;5074832;28;20737;-71
2022/09/01 06:30:25;;;;;;;18.90;16.97;;;;;;;15.45;100.00;98310.75;5074954;28;20426;-71
2022/09/01 06:32:53;;;;;;;18.87;16.93;;;;;;;15.50;100.00;98310.84;5075181;28;20200;-71
2022/09/01 06:35:23;;;;;;;18.73;17.03;;;;;;;15.70;100.00;98317.31;5075367;28;20302;-71
2022/09/01 06:37:50;;;;;;;20.47;18.57;;;;;;;15.79;100.00;98310.50;5075057;28;20197;-71
2022/09/01 06:40:17;;;;;;;18.37;16.50;;;;;;;15.70;100.00;98314.66;5074808;28;20741;-71
2022/09/01 06:42:48;;;;;;;17.97;16.37;;;;;;;15.96;100.00;98307.81;5074974;28;20205;-73
2022/09/01 06:45:16;;;;;;;18.37;16.57;;;;;;;15.89;100.00;98315.19;5074858;28;20185;-74
2022/09/01 06:47:44;;;;;;;16.87;15.47;;;;;;;16.01;100.00;98314.03;5075890;28;20263;-72
2022/09/01 06:50:16;;;;;;;18.03;16.33;;;;;;;16.02;100.00;98312.97;5075025;28;20320;-74
2022/09/01 06:52:42;;;;;;;18.87;17.07;;;;;;;15.77;100.00;98322.53;5074664;28;20636;-74
2022/09/01 06:55:14;;;;;;;17.93;16.33;;;;;;;15.70;100.00;98324.56;5074907;28;20232;-73
2022/09/01 06:57:47;;;;;;;19.40;17.50;;;;;;;15.77;100.00;98311.78;5074320;28;20630;-74
2022/09/01 07:00:16;;;;;;;18.57;16.87;;;;;;;16.18;100.00;98320.19;5074663;28;20323;-73
2022/09/01 07:02:48;;;;;;;17.90;16.10;;;;;;;16.14;100.00;98320.91;5074707;28;20205;-73
2022/09/01 07:05:17;;;;;;;23.37;20.57;;;;;;;16.26;100.00;98326.97;5074447;28;20295;-74
2022/09/01 07:07:55;;;;;;;17.80;16.20;;;;;;;16.32;100.00;98321.44;5073824;28;20779;-74
2022/09/01 07:10:23;;;;;;;16.10;14.70;;;;;;;16.49;100.00;98318.72;5074618;28;20256;-71
2022/09/01 07:12:54;;;;;;;16.90;15.33;;;;;;;16.45;100.00;98325.66;5074431;28;20214;-71
2022/09/01 07:15:22;;;;;;;16.63;14.93;;;;;;;16.55;100.00;98325.78;5074498;28;20563;-71
2022/09/01 07:17:53;;;;;;;16.20;14.80;;;;;;;16.75;100.00;98336.75;5074195;28;20208;-71
2022/09/01 07:20:23;;;;;;;17.03;15.53;;;;;;;16.86;100.00;98323.19;5073822;28;20581;-71
2022/09/01 07:22:50;;;;;;;16.97;14.63;;;;;;;16.98;100.00;98331.94;5074073;28;20200;-71
2022/09/01 07:25:19;;;;;;;15.43;14.03;;;;;;;17.14;100.00;98330.22;5074103;28;20287;-72
2022/09/01 07:27:48;;;;;;;15.53;14.23;;;;;;;17.32;100.00;98333.31;5073975;28;20319;-71
2022/09/01 07:30:17;;;;;;;14.80;13.50;;;;;;;17.61;100.00;98334.69;5073884;28;20292;-72
2022/09/01 07:32:43;;;;;;;27.33;24.70;;;;;;;17.69;100.00;98342.28;5073861;28;20212;-72
2022/09/01 07:35:11;;;;;;;13.67;12.33;;;;;;;17.76;97.48;98345.56;5073382;28;20209;-71
2022/09/01 07:37:38;;;;;;;15.67;14.27;;;;;;;17.82;97.53;98343.75;5073884;28;20200;-71
2022/09/01 07:40:07;;;;;;;18.00;16.30;;;;;;;17.81;97.42;98336.72;5073645;28;20228;-71
2022/09/01 07:42:34;;;;;;;14.17;13.07;;;;;;;17.66;98.74;98344.69;5073991;28;20606;-71
2022/09/01 07:45:05;;;;;;;15.00;13.60;;;;;;;17.69;98.45;98341.47;5074042;28;20208;-71
2022/09/01 07:47:35;;;;;;;14.60;13.20;;;;;;;17.67;98.84;98357.88;5073930;28;20308;-71
2022/09/01 07:50:07;;;;;;;13.33;12.17;;;;;;;17.71;98.58;98347.41;5073894;28;20228;-71
2022/09/01 07:52:41;;;;;;;12.53;11.47;;;;;;;17.84;98.60;98347.78;5073893;28;20201;-71
2022/09/01 07:55:13;;;;;;;12.03;11.03;;;;;;;17.97;97.12;98357.28;5074046;28;20220;-71
2022/09/01 07:57:41;;;;;;;13.30;12.17;;;;;;;17.97;96.25;98355.38;5073448;28;20533;-71
2022/09/01 08:00:15;;;;;;;11.13;10.23;;;;;;;17.92;96.82;98359.94;5073447;28;20304;-71
2022/09/01 08:02:43;;;;;;;11.90;10.80;;;;;;;18.24;92.53;98369.56;5073340;28;20188;-71
2022/09/01 08:05:13;;;;;;;11.80;10.80;;;;;;;18.10;95.58;98359.53;5073603;28;20204;-71
2022/09/01 08:07:41;;;;;;;12.23;11.13;;;;;;;18.01;92.76;98359.19;5073217;28;20311;-71
2022/09/01 08:10:08;;;;;;;12.03;11.03;;;;;;;18.00;95.47;98362.94;5073607;28;20228;-71
2022/09/01 08:12:35;;;;;;;13.10;11.97;;;;;;;18.05;94.21;98360.28;5073633;28;20250;-71
2022/09/01 08:15:03;;;;;;;12.43;11.40;;;;;;;17.93;93.92;98359.69;5073536;28;20291;-71
2022/09/01 08:17:30;;;;;;;13.00;11.77;;;;;;;17.93;95.87;98366.94;5073524;28;20204;-71
2022/09/01 08:19:56;;;;;;;12.27;11.27;;;;;;;18.14;94.55;98374.88;5072403;28;20241;-71
2022/09/01 08:22:24;;;;;;;12.07;10.97;;;;;;;18.15;95.00;98368.44;5073556;28;20207;-71
2022/09/01 08:24:52;;;;;;;11.37;10.37;;;;;;;18.16;93.23;98366.56;5073012;28;20205;-71
2022/09/01 08:27:19;;;;;;;12.33;10.20;;;;;;;18.26;92.82;98372.00;5073103;28;20225;-71
2022/09/01 08:29:46;;;;;;;9.53;8.73;;;;;;;18.24;89.49;98371.47;5073080;28;20229;-71
2022/09/01 08:32:12;;;;;;;8.73;7.93;;;;;;;18.29;90.00;98377.69;5073596;28;20543;-71
2022/09/01 08:34:39;;;;;;;10.00;8.50;;;;;;;18.35;88.37;98371.28;5072948;28;20235;-71
2022/09/01 08:37:06;;;;;;;8.90;8.20;;;;;;;18.60;87.87;98363.31;5072790;28;20291;-72
2022/09/01 08:39:32;;;;;;;8.70;7.90;;;;;;;18.63;87.76;98373.59;5072894;28;20234;-71
2022/09/01 08:42:24;;;;;;;8.37;7.67;;;;;;;18.64;85.15;98363.63;5073065;28;20265;-71
2022/09/01 08:45:12;;;;;;;7.40;6.63;;;;;;;18.83;84.34;98376.34;5073295;28;20279;-71
2022/09/01 08:47:38;;;;;;;7.77;7.10;;;;;;;18.87;85.94;98369.38;5073137;28;20219;-71
2022/09/01 08:50:05;;;;;;;7.63;6.93;;;;;;;18.81;82.80;98375.00;5072865;28;20580;-72
2022/09/01 08:53:02;;;;;;;7.70;7.10;;;;;;;18.89;81.78;98378.00;5073183;28;20606;-71
2022/09/01 08:55:37;;;;;;;6.50;6.00;;;;;;;18.80;81.11;98379.59;5072897;28;20188;-71
2022/09/01 08:58:05;;;;;;;6.20;5.70;;;;;;;18.90;80.25;98382.31;5073149;28;20208;-71
2022/09/01 09:00:41;;;;;;;7.13;6.47;;;;;;;19.03;80.42;98381.00;5073213;28;20264;-71
2022/09/01 09:03:16;;;;;;;6.37;5.87;;;;;;;18.84;80.49;98379.88;5072426;28;20634;-71
2022/09/01 09:06:01;;;;;;;8.73;5.40;;;;;;;19.16;79.52;98381.34;5072720;28;20193;-71
2022/09/01 09:09:06;;;;;;;5.50;5.00;;;;;;;19.07;77.50;98388.31;5072952;28;20208;-71
2022/09/01 09:11:51;;;;;;;4.90;4.50;;;;;;;18.97;80.23;98384.78;5073169;28;20211;-71
2022/09/01 09:14:28;;;;;;;5.40;4.97;;;;;;;19.04;78.04;98393.41;5072833;28;20283;-71
2022/09/01 09:16:56;;;;;;;27.33;24.50;;;;;;;19.03;77.97;98394.47;5072598;28;20188;-71
2022/09/01 09:19:28;;;;;;;14.10;12.67;;;;;;;19.07;77.62;98395.56;5072499;28;20236;-73
2022/09/01 09:21:57;;;;;;;7.83;6.57;;;;;;;19.07;80.09;98390.19;5072911;28;20245;-72
2022/09/01 09:24:49;;;;;;;6.97;6.37;;;;;;;19.04;79.74;98386.13;5072601;28;20571;-73
2022/09/01 09:27:18;;;;;;;6.73;6.00;;;;;;;18.90;78.42;98385.00;5072741;28;20262;-73
2022/09/01 09:29:56;;;;;;;6.13;5.63;;;;;;;18.81;78.75;98386.59;5072517;28;20228;-72
2022/09/01 09:32:42;;;;;;;6.17;5.67;;;;;;;18.78;80.10;98387.09;5075266;28;20540;-73
2022/09/01 09:35:30;;;;;;;6.93;6.10;;;;;;;18.78;79.75;98383.63;5076491;28;20185;-73
2022/09/01 09:38:17;;;;;;;6.97;6.37;;;;;;;18.87;78.51;98390.91;5076267;28;20247;-72
2022/09/01 09:41:14;;;;;;;6.37;5.87;;;;;;;19.04;79.93;98388.84;5076934;28;20236;-73
2022/09/01 09:43:57;;;;;;;6.17;5.67;;;;;;;19.09;79.46;98383.44;5075922;28;20654;-72
2022/09/01 09:46:32;;;;;;;9.67;8.43;;;;;;;19.23;79.24;98384.59;5076218;28;20189;-72
2022/09/01 09:49:19;;;;;;;18.27;16.50;;;;;;;19.25;77.29;98385.16;5076065;28;20295;-72
2022/09/01 09:51:48;;;;;;;8.53;7.83;;;;;;;19.13;78.99;98384.56;5075989;28;20208;-73
2022/09/01 09:54:23;;;;;;;5.87;5.43;;;;;;;19.35;79.44;98384.34;5076415;28;20215;-72
2022/09/01 09:57:07;;;;;;;7.20;6.60;;;;;;;19.31;80.71;98378.69;5075972;28;20189;-73
2022/09/01 09:59:34;;;;;;;9.13;6.27;;;;;;;19.29;79.93;98383.56;5076357;28;20232;-73
2022/09/01 10:02:33;;;;;;;6.10;5.57;;;;;;;19.60;78.85;98368.22;5075554;28;20204;-72
2022/09/01 10:05:21;;;;;;;7.33;6.73;;;;;;;19.75;78.79;98372.81;5061359;28;20690;-73
2022/09/01 10:07:48;;;;;;;6.27;5.63;;;;;;;19.75;77.41;98368.22;5075654;28;20215;-73
2022/09/01 10:10:43;;;;;;;15.40;13.87;;;;;;;19.71;79.10;98369.03;5075314;28;20224;-73
2022/09/01 10:13:19;;;;;;;13.57;12.17;;;;;;;19.54;76.90;98366.59;5073921;28;20291;-73
2022/09/01 10:15:50;;;;;;;9.23;8.07;;;;;;;19.27;77.23;98376.81;5075970;28;20196;-69
2022/09/01 10:18:23;;;;;;;6.13;5.13;;;;;;;19.20;77.98;98381.59;5075372;28;20204;-69
2022/09/01 10:21:04;;;;;;;5.57;5.10;;;;;;;19.46;78.40;98365.22;5074779;28;20247;-70
2022/09/01 10:23:34;;;;;;;6.37;5.80;;;;;;;20.00;75.41;98365.53;5075121;28;20200;-69
2022/09/01 10:26:10;;;;;;;5.87;5.37;;;;;;;20.32;75.40;98365.22;5075264;28;20208;-69
2022/09/01 10:28:46;;;;;;;6.43;5.37;;;;;;;20.88;74.83;98366.63;5075492;28;20212;-69
2022/09/01 10:31:14;;;;;;;4.93;4.53;;;;;;;21.09;70.52;98366.31;5075534;28;20238;-70
2022/09/01 10:33:41;;;;;;;5.37;4.97;;;;;;;20.78;69.15;98364.81;5075003;28;20578;-70
2022/09/01 10:36:08;;;;;;;10.43;8.37;;;;;;;20.61;69.34;98367.03;5057601;28;20216;-70
2022/09/01 10:38:35;;;;;;;7.57;5.17;;;;;;;20.37;69.57;98367.91;5075119;28;20200;-69
2022/09/01 10:41:07;;;;;;;7.33;6.60;;;;;;;20.50;69.41;98368.16;5075044;28;20228;-69
2022/09/01 10:43:43;;;;;;;3.97;3.67;;;;;;;20.48;68.93;98359.50;5074392;28;20220;-70
2022/09/01 10:46:19;;;;;;;4.10;3.80;;;;;;;20.79;70.52;98360.22;5075134;28;20212;-70
2022/09/01 10:48:50;;;;;;;4.23;3.93;;;;;;;20.77;68.24;98355.09;5074975;28;20228;-70
2022/09/01 10:51:17;;;;;;;9.00;8.30;;;;;;;20.83;68.85;98353.97;5074943;28;20196;-71
2022/09/01 10:53:54;;;;;;;9.83;8.87;;;;;;;21.33;67.59;98351.03;5074894;28;20278;-71
2022/09/01 10:56:42;;;;;;;5.00;3.43;;;;;;;21.89;64.56;98344.13;5074861;28;20279;-71
2022/09/01 10:59:23;;;;;;;4.33;3.73;;;;;;;22.00;61.16;98345.66;5075448;28;20227;-71
2022/09/01 11:01:49;;;;;;;5.03;4.43;;;;;;;21.64;63.78;98348.91;5074589;28;20196;-71
2022/09/01 11:04:23;;;;;;;5.17;4.67;;;;;;;21.49;63.76;98344.44;5074877;28;20207;-71
2022/09/01 11:07:05;;;;;;;14.13;12.80;;;;;;;20.93;65.89;98345.06;5074577;28;20200;-70
2022/09/01 11:09:40;;;;;;;11.63;10.47;;;;;;;20.71;66.43;98345.38;5074258;28;20703;-71
2022/09/01 11:12:25;;;;;;;5.40;4.90;;;;;;;20.58;66.49;98351.34;5074618;28;20214;-71
2022/09/01 11:15:16;;;;;;;4.13;3.83;;;;;;;20.42;67.69;98340.88;5074455;28;20275;-70
2022/09/01 11:17:45;;;;;;;4.13;3.80;;;;;;;20.54;67.68;98338.69;5045875;28;20663;-70
2022/09/01 11:20:32;;;;;;;4.57;4.27;;;;;;;20.46;67.14;98340.06;5074500;28;20252;-70
2022/09/01 11:23:05;;;;;;;31.60;28.50;;;;;;;20.36;67.10;98336.59;5074317;28;20663;-70
2022/09/01 11:25:37;;;;;;;21.23;19.30;;;;;;;20.11;67.67;98344.75;5074152;28;20606;-70
2022/09/01 11:28:11;;;;;;;5.20;4.70;;;;;;;20.17;68.14;98346.38;5073909;28;20729;-70
2022/09/01 11:30:51;;;;;;;5.47;4.20;;;;;;;20.17;68.32;98343.66;5074368;28;20278;-71
2022/09/01 11:33:39;;;;;;;3.87;3.60;;;;;;;20.26;67.65;98332.00;5074338;28;20232;-70
2022/09/01 11:36:13;;;;;;;4.63;4.20;;;;;;;20.31;68.03;98332.03;5074339;28;20200;-70